• pl
  • eng

Awiacja
TAF FT 01:00 01.01.1970

TAF EPBY 180530Z 1806/1906 VRB02KT 3000 BR NSC
PROB40 1806/1807 0800 FZFG OVC002
BECMG 1807/1810 5000 -RA BR BKN006 BKN012
TEMPO 1810/1815 1400 RADZ BR BKN003
BECMG 1815/1817 03010KT=

TAF EPGD 180530Z 1806/1906 VRB02KT 9999 BKN016
PROB40 1806/1810 4000 BR BKN005
BECMG 1810/1812 02013KT -RA BKN004 BKN012
PROB40 TEMPO 1810/1818 04016G32KT
BECMG 1822/1824 08010KT=

TAF EPKK 180530Z 1806/1906 06004KT CAVOK
BECMG 1815/1818 BKN014
TEMPO 1816/1906 2500 SN BR=

TAF EPKK 180830Z 1809/1909 VRB02KT CAVOK
BECMG 1815/1818 BKN014
TEMPO 1816/1906 2000 SN BR
BECMG 1906/1909 09010KT=

TAF EPKT 180530Z 1806/1906 VRB03KT CAVOK
BECMG 1816/1819 BKN013
TEMPO 1817/1906 2500 SN BR BKN007=

TAF EPLL 180530Z 1806/1906 VRB02KT 6000 NSC
PROB40 1806/1808 4000 BR
BECMG 1811/1814 4000 -RA BR BKN006
PROB40 TEMPO 1812/1906 2000 -RASN BKN002
BECMG 1822/1824 06010KT=

TAF EPMO 180530Z 1806/1906 27005KT 7000 NSC
PROB40 1806/1808 4000 BR
BECMG 1808/1810 27010KT 3000 -RADZ BR BKN005 OVC010
PROB40 1809/1812 1500 RASN BKN003
PROB40 1815/1819 1200 RA DZ BR BKN002
BECMG 1819/1821 07010KT 5000 -RA BR=

TAF EPPO 180530Z 1806/1906 33004KT 5000 BR NSC
TEMPO 1806/1809 1500 BR
PROB30 1806/1808 0800 FG BKN003
BECMG 1811/1814 3000 BR BKN013
TEMPO 1814/1906 1500 -RA BR BKN005
PROB40 1815/1906 1000 -RASN BR BKN003=

TAF EPRZ 180530Z 1806/1906 VRB03KT CAVOK
BECMG 1815/1818 BKN014
TEMPO 1816/1906 2500 SN BR BKN008=

TAF EPSC 180530Z 1806/1906 VRB03KT CAVOK
PROB40 1806/1808 4000 BR
BECMG 1808/1810 -RA BKN006
TEMPO 1810/1818 1400 RADZ BR OVC002
BECMG 1816/1818 03010KT=

TAF EPWA 180530Z 1806/1906 27005KT 6000 NSC
PROB40 1806/1807 4000 BR
BECMG 1808/1811 3000 -RADZ BR BKN005 BKN010
PROB40 1809/1812 1500 RASN BKN003
PROB40 1815/1818 1200 RA DZ BR BKN002
BECMG 1818/1821 06010KT 5000 -RA BR=

TAF EPWA 180830Z 1809/1909 25006KT 5000 BR NSC
BECMG 1809/1812 3000 -RADZ BR BKN005 BKN010
PROB40 1809/1812 1500 RASN BKN003
PROB40 1815/1818 1200 RA DZ BR BKN002
BECMG 1818/1821 06010KT 5000 -RA BR
TEMPO 1819/1906 1500 DZ BKN003=

TAF EPWR 180530Z 1806/1906 VRB03KT 5000 BR NSC
TEMPO 1806/1808 1500 BR
BECMG 1814/1816 3000 -RA BKN013
TEMPO 1817/1906 1500 -RASN BKN005=

TAF EPWR 180830Z 1809/1909 30004KT 8000 SCT030
BECMG 1814/1816 3000 -RA BKN013
TEMPO 1817/1908 1500 -RASN BKN004
BECMG 1907/1909 05010KT=
Awiacja.imgw.pl jest pogodowym serwisem informacyjnym
Instytutu Meteorologii i Gospodarki Wodnej Państwowego Instytutu Badawczego.
Copyright IMGW PIB 2009-2011© Wszelkie prawa zastrzeżone.